createdAt,value
2022-08-28T00:03:34.124Z,19.11
2022-08-28T00:08:35.360Z,19.02
2022-08-28T00:13:36.615Z,18.96
2022-08-28T00:18:38.407Z,18.91
2022-08-28T00:23:42.697Z,18.87
2022-08-28T00:28:44.673Z,18.84
2022-08-28T00:33:48.097Z,18.84
2022-08-28T00:38:49.724Z,18.83
2022-08-28T00:44:24.155Z,18.81
2022-08-28T00:49:31.817Z,18.78
2022-08-28T00:54:37.739Z,18.75
2022-08-28T00:59:38.911Z,18.72
2022-08-28T01:04:40.225Z,18.65
2022-08-28T01:09:46.880Z,18.55
2022-08-28T01:14:52.753Z,18.48
2022-08-28T01:20:02.632Z,18.42
2022-08-28T01:25:10.567Z,18.36
2022-08-28T01:30:17.269Z,18.34
2022-08-28T01:35:25.280Z,18.32
2022-08-28T01:40:36.277Z,18.26
2022-08-28T01:45:40.228Z,18.19
2022-08-28T01:50:42.221Z,18.11
2022-08-28T01:55:43.775Z,17.99
2022-08-28T02:00:45.187Z,17.93
2022-08-28T02:05:46.635Z,17.89
2022-08-28T02:10:48.482Z,17.86
2022-08-28T02:15:51.111Z,17.84
2022-08-28T02:20:52.655Z,17.85
2022-08-28T02:25:53.970Z,17.87
2022-08-28T02:30:55.172Z,17.88
2022-08-28T02:35:56.542Z,17.89
2022-08-28T02:40:57.929Z,17.89
2022-08-28T02:45:59.149Z,17.89
2022-08-28T02:51:03.627Z,17.88
2022-08-28T02:56:05.509Z,17.87
2022-08-28T03:01:10.104Z,17.84
2022-08-28T03:06:12.395Z,17.82
2022-08-28T03:11:13.864Z,17.81
2022-08-28T03:16:15.135Z,17.79
2022-08-28T03:21:16.668Z,17.81
2022-08-28T03:26:19.625Z,17.80
2022-08-28T03:31:24.323Z,17.79
2022-08-28T03:36:27.755Z,17.75
2022-08-28T03:41:30.709Z,17.72
2022-08-28T03:46:33.524Z,17.68
2022-08-28T03:51:35.310Z,17.66
2022-08-28T03:56:36.427Z,17.67
2022-08-28T04:01:37.667Z,17.69
2022-08-28T04:06:38.867Z,17.71
2022-08-28T04:11:43.479Z,17.73
2022-08-28T04:16:44.639Z,17.74
2022-08-28T04:21:45.852Z,17.82
2022-08-28T04:26:46.992Z,17.89
2022-08-28T04:31:48.994Z,17.97
2022-08-28T04:36:51.184Z,18.04
2022-08-28T04:41:55.079Z,18.12
2022-08-28T04:46:57.928Z,18.25
2022-08-28T04:52:00.296Z,18.42
2022-08-28T04:57:02.026Z,18.59
2022-08-28T05:02:07.663Z,18.75
2022-08-28T05:07:08.921Z,18.87
2022-08-28T05:12:16.277Z,19.01
2022-08-28T05:17:17.551Z,19.18
2022-08-28T05:22:18.731Z,19.34
2022-08-28T05:27:20.013Z,19.51
2022-08-28T05:32:21.204Z,19.70
2022-08-28T05:37:22.416Z,19.91
2022-08-28T05:42:23.505Z,20.17
2022-08-28T05:47:31.993Z,20.93
2022-08-28T05:52:34.318Z,24.27
2022-08-28T05:57:35.476Z,27.90
2022-08-28T06:02:36.641Z,30.77
2022-08-28T06:07:37.849Z,32.89
2022-08-28T06:12:39.069Z,34.55
2022-08-28T06:17:41.659Z,35.86
2022-08-28T06:22:43.161Z,36.89
2022-08-28T06:27:44.315Z,37.70
2022-08-28T06:32:47.456Z,38.26
2022-08-28T06:37:49.216Z,38.86
2022-08-28T06:42:50.883Z,39.40
2022-08-28T06:47:52.031Z,40.11
2022-08-28T06:52:54.782Z,40.71
2022-08-28T06:57:55.981Z,41.04
2022-08-28T07:02:58.580Z,41.47
2022-08-28T07:08:00.136Z,41.73
2022-08-28T07:13:02.816Z,41.78
2022-08-28T07:18:03.938Z,41.97
2022-08-28T07:23:05.269Z,42.10
2022-08-28T07:28:07.632Z,42.28
2022-08-28T07:33:08.813Z,42.41
2022-08-28T07:38:10.808Z,42.28
2022-08-28T07:43:30.616Z,42.11
2022-08-28T07:48:36.195Z,42.08
2022-08-28T07:53:37.419Z,41.83
2022-08-28T07:58:38.941Z,41.51
2022-08-28T08:03:40.139Z,41.03
2022-08-28T08:08:41.667Z,40.60
2022-08-28T08:13:45.560Z,40.13
2022-08-28T08:18:48.257Z,39.56
2022-08-28T08:23:49.657Z,38.74
2022-08-28T08:28:51.708Z,37.93
2022-08-28T08:33:56.433Z,37.21
2022-08-28T08:38:59.272Z,36.50
2022-08-28T08:44:15.509Z,36.07
2022-08-28T08:49:19.829Z,35.78
2022-08-28T08:54:23.894Z,35.43
2022-08-28T08:59:38.149Z,35.16
2022-08-28T09:05:01.362Z,34.94
2022-08-28T09:10:06.968Z,34.83
2022-08-28T09:15:25.537Z,34.75
2022-08-28T09:20:32.909Z,34.75
2022-08-28T09:26:01.910Z,34.72
2022-08-28T09:31:12.053Z,34.66
2022-08-28T09:36:31.904Z,34.39
2022-08-28T09:42:36.975Z,33.96
2022-08-28T09:47:48.069Z,33.48
2022-08-28T09:52:51.556Z,33.11
2022-08-28T09:57:53.883Z,32.82
2022-08-28T10:03:14.124Z,32.55
2022-08-28T10:08:23.491Z,32.55
2022-08-28T10:13:39.649Z,32.63
2022-08-28T10:18:59.593Z,32.53
2022-08-28T10:24:26.665Z,32.59
2022-08-28T10:30:08.848Z,32.59
2022-08-28T10:35:50.297Z,32.53
2022-08-28T10:40:51.310Z,32.58
2022-08-28T10:45:54.172Z,32.64
2022-08-28T10:51:00.848Z,32.75
2022-08-28T10:56:14.960Z,32.78
2022-08-28T11:01:37.824Z,32.73
2022-08-28T11:06:51.430Z,32.72
2022-08-28T11:12:02.054Z,32.81
2022-08-28T11:17:08.369Z,32.80
2022-08-28T11:22:17.107Z,32.88
2022-08-28T11:27:32.330Z,32.99
2022-08-28T11:32:33.387Z,33.05
2022-08-28T11:37:54.132Z,33.03
2022-08-28T11:43:14.128Z,32.91
2022-08-28T11:48:36.745Z,32.90
2022-08-28T11:54:02.812Z,32.97
2022-08-28T11:59:25.683Z,33.07
2022-08-28T12:04:42.187Z,32.95
2022-08-28T12:09:49.114Z,32.74
2022-08-28T12:15:00.715Z,32.74
2022-08-28T12:20:09.674Z,32.50
2022-08-28T12:25:23.457Z,32.33
2022-08-28T12:30:34.550Z,32.25
2022-08-28T12:35:36.184Z,32.50
2022-08-28T12:40:37.348Z,32.74
2022-08-28T12:46:00.331Z,32.97
2022-08-28T12:51:08.391Z,33.37
2022-08-28T12:56:12.295Z,33.69
2022-08-28T13:01:23.043Z,33.85
2022-08-28T13:06:29.045Z,33.74
2022-08-28T13:11:36.160Z,33.42
2022-08-28T13:16:41.077Z,33.26
2022-08-28T13:21:51.141Z,32.98
2022-08-28T13:27:20.755Z,32.80
2022-08-28T13:32:22.654Z,32.82
2022-08-28T13:37:43.017Z,32.78
2022-08-28T13:42:45.834Z,32.58
2022-08-28T13:47:47.024Z,32.35
2022-08-28T13:52:48.210Z,32.19
2022-08-28T13:57:49.426Z,32.13
2022-08-28T14:03:08.957Z,32.21
2022-08-28T14:08:10.315Z,32.14
2022-08-28T14:13:12.133Z,31.96
2022-08-28T14:18:13.716Z,31.78
2022-08-28T14:23:15.287Z,31.66
2022-08-28T14:28:17.078Z,31.50
2022-08-28T14:33:18.837Z,31.31
2022-08-28T14:38:22.433Z,31.06
2022-08-28T14:43:24.068Z,30.80
2022-08-28T14:48:25.914Z,30.75
2022-08-28T14:53:27.204Z,30.91
2022-08-28T14:58:31.784Z,31.08
2022-08-28T15:03:33.479Z,31.33
2022-08-28T15:08:36.127Z,31.55
2022-08-28T15:13:37.399Z,31.81
2022-08-28T15:18:40.512Z,32.10
2022-08-28T15:23:43.008Z,32.25
2022-08-28T15:28:44.857Z,32.37
2022-08-28T15:33:46.037Z,32.37
2022-08-28T15:39:06.553Z,32.20
2022-08-28T15:44:10.067Z,31.75
2022-08-28T15:49:17.603Z,31.35
2022-08-28T15:54:22.218Z,31.17
2022-08-28T15:59:23.655Z,30.88
2022-08-28T16:04:27.073Z,30.19
2022-08-28T16:09:28.860Z,29.35
2022-08-28T16:14:31.986Z,28.72
2022-08-28T16:19:33.108Z,28.19
2022-08-28T16:24:34.541Z,27.66
2022-08-28T16:29:36.391Z,27.29
2022-08-28T16:34:39.124Z,27.03
2022-08-28T16:39:40.936Z,26.81
2022-08-28T16:44:42.042Z,26.52
2022-08-28T16:49:43.413Z,25.97
2022-08-28T16:54:47.484Z,25.52
2022-08-28T16:59:52.883Z,25.02
2022-08-28T17:04:57.428Z,24.55
2022-08-28T17:09:59.382Z,24.29
2022-08-28T17:15:00.727Z,24.18
2022-08-28T17:20:04.734Z,24.12
2022-08-28T17:25:13.006Z,24.06
2022-08-28T17:30:14.943Z,24.01
2022-08-28T17:35:16.595Z,23.90
2022-08-28T17:40:17.848Z,23.75
2022-08-28T17:45:19.518Z,23.65
2022-08-28T17:50:21.230Z,23.53
2022-08-28T17:55:22.541Z,23.42
2022-08-28T18:00:24.945Z,23.33
2022-08-28T18:05:26.383Z,23.28
2022-08-28T18:10:32.763Z,23.20
2022-08-28T18:15:34.110Z,23.14
2022-08-28T18:20:39.573Z,23.01
2022-08-28T18:25:40.915Z,22.95
2022-08-28T18:30:46.856Z,22.92
2022-08-28T18:35:56.409Z,22.89
2022-08-28T18:40:58.992Z,22.88
2022-08-28T18:46:01.814Z,22.91
2022-08-28T18:51:06.862Z,22.91
2022-08-28T18:56:08.644Z,22.93
2022-08-28T19:01:12.012Z,22.94
2022-08-28T19:06:14.343Z,22.90
2022-08-28T19:11:15.576Z,22.83
2022-08-28T19:16:19.714Z,22.74
2022-08-28T19:21:21.108Z,22.63
2022-08-28T19:26:24.008Z,22.61
2022-08-28T19:31:26.119Z,22.64
2022-08-28T19:36:29.808Z,22.64
2022-08-28T19:41:31.767Z,22.60
2022-08-28T19:46:35.271Z,22.58
2022-08-28T19:51:37.895Z,22.60
2022-08-28T19:56:39.974Z,22.66
2022-08-28T20:01:44.023Z,22.71
2022-08-28T20:06:45.469Z,22.70
2022-08-28T20:11:48.291Z,22.67
2022-08-28T20:16:50.786Z,22.64
2022-08-28T20:21:51.976Z,22.59
2022-08-28T20:26:53.122Z,22.52
2022-08-28T20:31:54.337Z,22.52
2022-08-28T20:36:55.521Z,22.47
2022-08-28T20:41:56.882Z,22.43
2022-08-28T20:46:58.143Z,22.42
2022-08-28T20:52:01.240Z,22.42
2022-08-28T20:57:08.998Z,22.44
2022-08-28T21:02:14.245Z,22.45
2022-08-28T21:07:18.115Z,22.43
2022-08-28T21:12:19.253Z,22.37
2022-08-28T21:17:28.704Z,22.34
2022-08-28T21:22:33.006Z,22.34
2022-08-28T21:27:37.317Z,22.36
2022-08-28T21:32:39.543Z,22.36
2022-08-28T21:37:41.428Z,22.31
2022-08-28T21:42:43.678Z,22.15
2022-08-28T21:47:44.754Z,22.00
2022-08-28T21:52:46.283Z,21.87
2022-08-28T21:57:47.988Z,21.72
2022-08-28T22:02:49.733Z,21.60
2022-08-28T22:07:51.196Z,21.50
2022-08-28T22:12:52.332Z,21.41
2022-08-28T22:17:54.039Z,21.25
2022-08-28T22:23:13.940Z,21.11
2022-08-28T22:28:15.275Z,20.98
2022-08-28T22:33:16.543Z,20.90
2022-08-28T22:38:19.792Z,20.81
2022-08-28T22:43:21.555Z,20.68
2022-08-28T22:48:22.710Z,20.57
2022-08-28T22:53:24.082Z,20.48
2022-08-28T22:58:26.803Z,20.37
2022-08-28T23:03:28.054Z,20.26
2022-08-28T23:08:33.706Z,20.22
2022-08-28T23:13:36.084Z,20.19
2022-08-28T23:19:06.758Z,20.17
2022-08-28T23:23:59.564Z,20.18
2022-08-28T23:29:00.786Z,20.18
2022-08-28T23:34:03.373Z,20.22
2022-08-28T23:39:06.345Z,20.21
2022-08-28T23:44:09.169Z,20.14
2022-08-28T23:49:12.059Z,20.12
2022-08-28T23:54:13.907Z,20.15
2022-08-28T23:59:15.035Z,20.18
